createdAt,value
2018-12-27T00:00:56.248Z,0.00
2018-12-27T00:01:56.239Z,0.00
2018-12-27T00:02:56.231Z,0.00
2018-12-27T00:03:56.222Z,0.00
2018-12-27T00:04:56.215Z,0.00
2018-12-27T00:05:56.207Z,0.00
2018-12-27T00:06:56.199Z,0.00
2018-12-27T00:07:56.189Z,0.00
2018-12-27T00:08:56.181Z,0.00
2018-12-27T00:09:56.176Z,0.00
2018-12-27T00:10:56.163Z,0.00
2018-12-27T00:11:56.156Z,0.00
2018-12-27T00:12:56.148Z,0.00
2018-12-27T00:13:56.140Z,0.00
2018-12-27T00:14:56.131Z,0.00
2018-12-27T00:15:56.122Z,0.00
2018-12-27T00:16:56.115Z,0.00
2018-12-27T00:17:56.107Z,0.00
2018-12-27T00:18:56.099Z,0.00
2018-12-27T00:19:56.089Z,0.00
2018-12-27T00:20:56.081Z,0.00
2018-12-27T00:21:56.074Z,0.00
2018-12-27T00:22:56.065Z,0.00
2018-12-27T00:23:56.057Z,0.00
2018-12-27T00:24:56.048Z,0.00
2018-12-27T00:25:56.040Z,0.00
2018-12-27T00:26:56.055Z,0.00
2018-12-27T00:27:56.026Z,0.00
2018-12-27T00:28:56.023Z,0.00
2018-12-27T00:29:56.008Z,0.00
2018-12-27T00:30:55.998Z,0.00
2018-12-27T00:31:55.989Z,0.00
2018-12-27T00:33:02.961Z,0.00
2018-12-27T00:33:55.973Z,0.00
2018-12-27T00:34:55.966Z,0.00
2018-12-27T00:35:55.957Z,0.00
2018-12-27T00:36:55.950Z,0.00
2018-12-27T00:37:55.942Z,0.00
2018-12-27T00:38:55.932Z,0.00
2018-12-27T00:39:55.924Z,0.00
2018-12-27T00:40:55.920Z,0.00
2018-12-27T00:41:55.907Z,0.00
2018-12-27T00:42:55.910Z,0.00
2018-12-27T00:43:55.892Z,0.00
2018-12-27T00:44:55.883Z,0.00
2018-12-27T00:45:55.874Z,0.00
2018-12-27T00:46:55.869Z,0.00
2018-12-27T00:47:55.936Z,0.00
2018-12-27T00:48:55.851Z,0.00
2018-12-27T00:49:55.842Z,0.00
2018-12-27T00:50:55.834Z,0.00
2018-12-27T00:51:55.828Z,0.00
2018-12-27T00:52:55.819Z,0.00
2018-12-27T00:53:55.813Z,0.00
2018-12-27T00:54:55.802Z,0.00
2018-12-27T00:55:55.793Z,0.00
2018-12-27T00:56:55.785Z,0.00
2018-12-27T00:57:55.777Z,0.00
2018-12-27T00:58:55.768Z,0.00
2018-12-27T00:59:55.761Z,0.00
2018-12-27T01:00:55.752Z,0.00
2018-12-27T01:01:55.746Z,0.00
2018-12-27T01:02:55.737Z,0.00
2018-12-27T01:03:55.728Z,0.00
2018-12-27T01:04:55.720Z,0.00
2018-12-27T01:05:55.714Z,0.00
2018-12-27T01:06:55.704Z,0.00
2018-12-27T01:07:55.696Z,0.00
2018-12-27T01:08:55.689Z,0.00
2018-12-27T01:09:55.680Z,0.00
2018-12-27T01:10:55.671Z,0.00
2018-12-27T01:11:55.664Z,0.00
2018-12-27T01:12:55.655Z,0.00
2018-12-27T01:13:55.649Z,0.00
2018-12-27T01:14:55.640Z,0.00
2018-12-27T01:15:55.633Z,0.00
2018-12-27T01:16:55.623Z,0.00
2018-12-27T01:17:55.616Z,0.00
2018-12-27T01:18:55.607Z,0.00
2018-12-27T01:19:55.598Z,0.00
2018-12-27T01:20:55.592Z,0.00
2018-12-27T01:21:55.584Z,0.00
2018-12-27T01:22:55.574Z,0.00
2018-12-27T01:23:55.566Z,0.00
2018-12-27T01:24:55.557Z,0.00
2018-12-27T01:25:55.552Z,0.00
2018-12-27T01:26:55.541Z,0.00
2018-12-27T01:27:55.534Z,0.00
2018-12-27T01:28:55.527Z,0.00
2018-12-27T01:29:55.518Z,0.00
2018-12-27T01:30:57.042Z,0.00
2018-12-27T01:31:55.502Z,0.00
2018-12-27T01:32:55.495Z,0.00
2018-12-27T01:33:55.487Z,0.00
2018-12-27T01:34:55.478Z,0.00
2018-12-27T01:35:55.470Z,0.00
2018-12-27T01:36:55.462Z,0.00
2018-12-27T01:37:55.454Z,0.00
2018-12-27T01:38:55.444Z,0.00
2018-12-27T01:39:55.438Z,0.00
2018-12-27T01:40:55.429Z,0.00
2018-12-27T01:41:55.424Z,0.00
2018-12-27T01:42:55.412Z,0.00
2018-12-27T01:43:55.406Z,0.00
2018-12-27T01:44:55.397Z,0.00
2018-12-27T01:45:55.394Z,0.00
2018-12-27T01:46:55.381Z,0.00
2018-12-27T01:47:55.372Z,0.00
2018-12-27T01:48:55.364Z,0.00
2018-12-27T01:49:55.357Z,0.00
2018-12-27T01:50:55.349Z,0.00
2018-12-27T01:51:55.340Z,0.00
2018-12-27T01:52:55.333Z,0.00
2018-12-27T01:53:55.326Z,0.00
2018-12-27T01:54:55.318Z,0.00
2018-12-27T01:55:55.310Z,0.00
2018-12-27T01:56:55.302Z,0.00
2018-12-27T01:57:55.295Z,0.00
2018-12-27T01:58:55.283Z,0.00
2018-12-27T01:59:55.278Z,0.00
2018-12-27T02:00:55.268Z,0.00
2018-12-27T02:01:55.260Z,0.00
2018-12-27T02:02:55.252Z,0.00
2018-12-27T02:03:55.245Z,0.00
2018-12-27T02:04:55.236Z,0.00
2018-12-27T02:05:55.228Z,0.00
2018-12-27T02:06:55.219Z,0.00
2018-12-27T02:07:55.211Z,0.00
2018-12-27T02:08:55.204Z,0.00
2018-12-27T02:09:55.198Z,0.00
2018-12-27T02:10:55.186Z,0.00
2018-12-27T02:11:55.178Z,0.00
2018-12-27T02:12:55.172Z,0.00
2018-12-27T02:13:55.180Z,0.00
2018-12-27T02:14:55.154Z,0.00
2018-12-27T02:15:55.145Z,0.00
2018-12-27T02:16:55.138Z,0.00
2018-12-27T02:17:55.130Z,0.00
2018-12-27T02:18:55.121Z,0.00
2018-12-27T02:19:55.114Z,0.00
2018-12-27T02:20:55.108Z,0.00
2018-12-27T02:21:55.102Z,0.00
2018-12-27T02:22:55.089Z,0.00
2018-12-27T02:23:55.080Z,0.00
2018-12-27T02:24:55.072Z,0.00
2018-12-27T02:25:55.067Z,0.00
2018-12-27T02:26:55.057Z,0.00
2018-12-27T02:27:55.047Z,0.00
2018-12-27T02:28:55.040Z,0.00
2018-12-27T02:29:55.031Z,0.00
2018-12-27T02:30:55.023Z,0.00
2018-12-27T02:31:55.166Z,0.00
2018-12-27T02:32:55.009Z,0.00
2018-12-27T02:33:54.999Z,0.00
2018-12-27T02:34:54.989Z,0.00
2018-12-27T02:35:54.982Z,0.00
2018-12-27T02:36:54.974Z,0.00
2018-12-27T02:37:54.965Z,0.00
2018-12-27T02:38:54.959Z,0.00
2018-12-27T02:39:54.950Z,0.00
2018-12-27T02:40:54.941Z,0.00
2018-12-27T02:41:54.936Z,0.00
2018-12-27T02:42:54.926Z,0.00
2018-12-27T02:43:54.917Z,0.00
2018-12-27T02:44:54.910Z,0.00
2018-12-27T02:45:54.901Z,0.00
2018-12-27T02:46:54.892Z,0.00
2018-12-27T02:47:54.883Z,0.00
2018-12-27T02:48:54.878Z,0.00
2018-12-27T02:49:54.866Z,0.00
2018-12-27T02:50:54.857Z,0.00
2018-12-27T02:51:54.849Z,0.00
2018-12-27T02:52:54.840Z,0.00
2018-12-27T02:53:54.835Z,0.00
2018-12-27T02:54:54.828Z,0.00
2018-12-27T02:55:54.817Z,0.00
2018-12-27T02:56:54.811Z,0.00
2018-12-27T02:57:54.799Z,0.00
2018-12-27T02:58:54.791Z,0.00
2018-12-27T02:59:54.785Z,0.00
2018-12-27T03:00:54.778Z,0.00
2018-12-27T03:01:54.765Z,0.00
2018-12-27T03:02:54.758Z,0.00
2018-12-27T03:03:54.749Z,0.00
2018-12-27T03:04:54.740Z,0.00
2018-12-27T03:05:54.733Z,0.00
2018-12-27T03:06:54.725Z,0.00
2018-12-27T03:07:54.715Z,0.00
2018-12-27T03:08:54.711Z,0.00
2018-12-27T03:09:54.701Z,0.00
2018-12-27T03:10:54.691Z,0.00
2018-12-27T03:11:54.682Z,0.00
2018-12-27T03:12:54.672Z,0.00
2018-12-27T03:13:54.665Z,0.00
2018-12-27T03:14:54.656Z,0.00
2018-12-27T03:15:54.648Z,0.00
2018-12-27T03:16:54.643Z,0.00
2018-12-27T03:17:54.631Z,0.00
2018-12-27T03:18:54.622Z,0.00
2018-12-27T03:19:54.613Z,0.00
2018-12-27T03:20:54.613Z,0.00
2018-12-27T03:21:54.598Z,0.00
2018-12-27T03:22:54.589Z,0.00
2018-12-27T03:23:54.579Z,0.00
2018-12-27T03:24:54.572Z,0.00
2018-12-27T03:25:54.563Z,0.00
2018-12-27T03:26:54.553Z,0.00
2018-12-27T03:27:54.544Z,0.00
2018-12-27T03:28:54.539Z,0.00
2018-12-27T03:29:54.530Z,0.00
2018-12-27T03:30:54.521Z,0.00
2018-12-27T03:31:54.512Z,0.00
2018-12-27T03:32:54.504Z,0.00
2018-12-27T03:33:54.495Z,0.00
2018-12-27T03:34:54.486Z,0.00
2018-12-27T03:35:54.477Z,0.00
2018-12-27T03:36:54.470Z,0.00
2018-12-27T03:37:54.462Z,0.00
2018-12-27T03:38:54.452Z,0.00
2018-12-27T03:39:54.442Z,0.00
2018-12-27T03:40:54.441Z,0.00
2018-12-27T03:41:54.425Z,0.00
2018-12-27T03:42:54.420Z,0.00
2018-12-27T03:43:54.410Z,0.00
2018-12-27T03:44:54.402Z,0.00
2018-12-27T03:45:54.392Z,0.00
2018-12-27T03:46:54.382Z,0.00
2018-12-27T03:47:54.374Z,0.00
2018-12-27T03:48:54.371Z,0.00
2018-12-27T03:49:54.358Z,0.00
2018-12-27T03:50:54.348Z,0.00
2018-12-27T03:51:54.343Z,0.00
2018-12-27T03:52:54.334Z,0.00
2018-12-27T03:53:54.324Z,0.00
2018-12-27T03:54:54.314Z,0.00
2018-12-27T03:55:54.305Z,0.00
2018-12-27T03:56:54.297Z,0.00
2018-12-27T03:57:54.290Z,0.00
2018-12-27T03:58:54.283Z,0.00
2018-12-27T03:59:54.270Z,0.00
2018-12-27T04:00:54.261Z,0.00
2018-12-27T04:01:54.255Z,0.00
2018-12-27T04:02:54.245Z,0.00
2018-12-27T04:04:01.260Z,0.00
2018-12-27T04:04:54.228Z,0.00
2018-12-27T04:05:54.220Z,0.00
2018-12-27T04:06:54.210Z,0.00
2018-12-27T04:07:54.202Z,0.00
2018-12-27T04:08:54.196Z,0.00
2018-12-27T04:09:54.185Z,0.00
2018-12-27T04:10:54.177Z,0.00
2018-12-27T04:11:54.166Z,0.00
2018-12-27T04:12:54.158Z,0.00
2018-12-27T04:13:54.149Z,0.00
2018-12-27T04:14:54.144Z,0.00
2018-12-27T04:15:54.131Z,0.00
2018-12-27T04:16:54.125Z,0.00
2018-12-27T04:17:54.115Z,0.00
2018-12-27T04:18:54.104Z,0.00
2018-12-27T04:19:54.096Z,0.00
2018-12-27T04:20:54.090Z,0.00
2018-12-27T04:21:54.087Z,0.00
2018-12-27T04:22:54.069Z,0.00
2018-12-27T04:23:54.061Z,0.00
2018-12-27T04:24:54.054Z,0.00
2018-12-27T04:25:54.045Z,0.00
2018-12-27T04:26:54.040Z,0.00
2018-12-27T04:27:54.031Z,0.00
2018-12-27T04:28:54.019Z,0.00
2018-12-27T04:29:54.015Z,0.00
2018-12-27T04:30:54.001Z,0.00
2018-12-27T04:31:53.992Z,0.00
2018-12-27T04:32:53.986Z,0.00
2018-12-27T04:33:53.975Z,0.00
2018-12-27T04:34:53.965Z,0.00
2018-12-27T04:35:54.207Z,0.00
2018-12-27T04:36:53.949Z,0.00
2018-12-27T04:37:53.940Z,0.00
2018-12-27T04:38:53.930Z,0.00
2018-12-27T04:39:53.922Z,0.00
2018-12-27T04:40:53.912Z,0.00
2018-12-27T04:41:53.904Z,0.00
2018-12-27T04:42:53.894Z,0.00
2018-12-27T04:43:53.888Z,0.00
2018-12-27T04:44:53.887Z,0.00
2018-12-27T04:45:53.868Z,0.00
2018-12-27T04:46:53.860Z,0.00
2018-12-27T04:47:53.850Z,0.00
2018-12-27T04:48:53.841Z,0.00
2018-12-27T04:49:53.833Z,0.00
2018-12-27T04:50:53.824Z,0.00
2018-12-27T04:51:53.817Z,0.00
2018-12-27T04:52:53.807Z,0.00
2018-12-27T04:53:53.799Z,0.00
2018-12-27T04:54:53.789Z,0.00
2018-12-27T04:55:53.781Z,0.00
2018-12-27T04:56:53.771Z,0.00
2018-12-27T04:57:53.763Z,0.00
2018-12-27T04:58:53.754Z,0.00
2018-12-27T04:59:53.743Z,0.00
2018-12-27T05:00:53.737Z,0.00
2018-12-27T05:01:53.729Z,0.00
2018-12-27T05:02:53.717Z,0.00
2018-12-27T05:03:53.713Z,0.00
2018-12-27T05:04:53.703Z,0.00
2018-12-27T05:05:53.693Z,0.00
2018-12-27T05:06:53.681Z,0.00
2018-12-27T05:07:53.672Z,0.00
2018-12-27T05:08:53.665Z,0.00
2018-12-27T05:09:53.654Z,0.00
2018-12-27T05:10:53.647Z,0.00
2018-12-27T05:11:53.644Z,0.00
2018-12-27T05:12:53.628Z,0.00
2018-12-27T05:13:53.619Z,0.00
2018-12-27T05:14:53.610Z,0.00
2018-12-27T05:15:53.606Z,0.00
2018-12-27T05:16:53.593Z,0.00
2018-12-27T05:17:53.582Z,0.00
2018-12-27T05:18:53.577Z,0.00
2018-12-27T05:19:53.572Z,0.00
2018-12-27T05:20:53.554Z,0.00
2018-12-27T05:21:53.550Z,0.00
2018-12-27T05:22:53.540Z,0.00
2018-12-27T05:23:53.528Z,0.00
2018-12-27T05:24:53.522Z,0.00
2018-12-27T05:25:53.512Z,0.00
2018-12-27T05:26:53.503Z,0.00
2018-12-27T05:27:53.491Z,0.00
2018-12-27T05:28:53.482Z,0.00
2018-12-27T05:29:53.478Z,0.00
2018-12-27T05:30:53.465Z,0.00
2018-12-27T05:31:53.456Z,0.00
2018-12-27T05:32:53.447Z,0.00
2018-12-27T05:33:53.439Z,0.00
2018-12-27T05:34:53.429Z,0.00
2018-12-27T05:35:53.427Z,0.00
2018-12-27T05:36:53.415Z,0.00
2018-12-27T05:37:53.402Z,0.00
2018-12-27T05:38:53.393Z,0.00
2018-12-27T05:39:53.382Z,0.00
2018-12-27T05:40:53.378Z,0.00
2018-12-27T05:41:53.366Z,0.00
2018-12-27T05:42:54.149Z,0.00
2018-12-27T05:43:53.347Z,0.00
2018-12-27T05:44:53.338Z,0.00
2018-12-27T05:45:53.328Z,0.00
2018-12-27T05:46:53.329Z,0.00
2018-12-27T05:47:53.312Z,0.00
2018-12-27T05:48:53.302Z,0.00
2018-12-27T05:49:53.291Z,0.00
2018-12-27T05:50:53.283Z,0.00
2018-12-27T05:51:53.273Z,0.00
2018-12-27T05:52:53.264Z,0.00
2018-12-27T05:53:53.255Z,0.00
2018-12-27T05:54:53.248Z,0.00
2018-12-27T05:55:53.236Z,0.00
2018-12-27T05:56:53.227Z,0.00
2018-12-27T05:57:53.218Z,0.00
2018-12-27T05:58:53.211Z,0.00
2018-12-27T05:59:53.200Z,0.00
2018-12-27T06:00:53.191Z,0.00
2018-12-27T06:01:53.181Z,0.00
2018-12-27T06:02:53.172Z,0.00
2018-12-27T06:03:53.162Z,0.00
2018-12-27T06:04:53.154Z,0.00
2018-12-27T06:05:53.145Z,0.00
2018-12-27T06:06:53.135Z,0.00
2018-12-27T06:07:53.125Z,0.00
2018-12-27T06:08:53.116Z,0.00
2018-12-27T06:09:53.107Z,0.00
2018-12-27T06:10:53.098Z,0.00
2018-12-27T06:11:53.088Z,0.00
2018-12-27T06:12:53.085Z,0.00
2018-12-27T06:13:53.075Z,0.00
2018-12-27T06:14:53.061Z,0.00
2018-12-27T06:15:53.051Z,0.00
2018-12-27T06:16:53.043Z,0.00
2018-12-27T06:17:53.034Z,0.00
2018-12-27T06:18:53.024Z,0.00
2018-12-27T06:19:53.015Z,0.00
2018-12-27T06:20:53.005Z,0.00
2018-12-27T06:21:52.997Z,0.00
2018-12-27T06:22:52.987Z,0.00
2018-12-27T06:23:52.977Z,0.00
2018-12-27T06:24:52.968Z,0.00
2018-12-27T06:25:52.960Z,0.00
2018-12-27T06:26:52.950Z,0.00
2018-12-27T06:27:52.940Z,0.00
2018-12-27T06:28:52.932Z,0.00
2018-12-27T06:29:52.923Z,0.00
2018-12-27T06:30:52.912Z,0.00
2018-12-27T06:31:52.906Z,0.00
2018-12-27T06:32:52.894Z,0.00
2018-12-27T06:33:52.885Z,0.00
2018-12-27T06:34:52.875Z,0.00
2018-12-27T06:35:52.866Z,0.00
2018-12-27T06:36:52.856Z,0.00
2018-12-27T06:37:52.847Z,0.00
2018-12-27T06:38:52.839Z,0.00
2018-12-27T06:39:52.832Z,0.00
2018-12-27T06:40:52.821Z,0.00
2018-12-27T06:41:52.809Z,0.00
2018-12-27T06:42:52.801Z,0.00
2018-12-27T06:43:52.792Z,0.00
2018-12-27T06:44:52.783Z,0.00
2018-12-27T06:45:52.772Z,0.00
2018-12-27T06:46:52.762Z,0.00
2018-12-27T06:47:52.753Z,0.00
2018-12-27T06:48:52.744Z,0.00
2018-12-27T06:49:52.735Z,0.00
2018-12-27T06:50:52.726Z,0.00
2018-12-27T06:51:52.717Z,0.00
2018-12-27T06:52:52.708Z,0.00
2018-12-27T06:53:52.701Z,0.00
2018-12-27T06:54:52.688Z,0.00
2018-12-27T06:55:52.679Z,0.00
2018-12-27T06:56:52.670Z,0.00
2018-12-27T06:57:52.660Z,0.00
2018-12-27T06:58:52.650Z,0.00
2018-12-27T06:59:52.641Z,0.00
2018-12-27T07:00:52.634Z,0.00
2018-12-27T07:01:52.622Z,0.00
2018-12-27T07:02:52.613Z,0.00
2018-12-27T07:03:52.603Z,0.00
2018-12-27T07:04:52.596Z,0.00
2018-12-27T07:05:52.589Z,0.00
2018-12-27T07:06:52.577Z,0.00
2018-12-27T07:07:52.566Z,0.00
2018-12-27T07:08:52.557Z,0.00
2018-12-27T07:09:52.549Z,0.00
2018-12-27T07:10:52.541Z,0.00
2018-12-27T07:11:52.530Z,0.00
2018-12-27T07:12:52.520Z,0.00
2018-12-27T07:13:52.510Z,0.00
2018-12-27T07:14:52.501Z,0.00
2018-12-27T07:15:52.491Z,0.00
2018-12-27T07:16:52.484Z,0.00
2018-12-27T07:17:52.473Z,0.00
2018-12-27T07:18:52.463Z,0.00
2018-12-27T07:19:52.453Z,0.00
2018-12-27T07:20:52.446Z,0.00
2018-12-27T07:21:52.435Z,0.00
2018-12-27T07:22:52.425Z,0.00
2018-12-27T07:23:52.416Z,0.00
2018-12-27T07:24:52.409Z,0.00
2018-12-27T07:25:52.398Z,0.00
2018-12-27T07:26:52.389Z,0.00
2018-12-27T07:27:52.378Z,0.00
2018-12-27T07:28:52.369Z,0.00
2018-12-27T07:29:52.360Z,0.00
2018-12-27T07:30:52.349Z,0.00
2018-12-27T07:31:52.342Z,0.00
2018-12-27T07:32:52.333Z,5.63
2018-12-27T07:33:52.322Z,5.63
2018-12-27T07:34:56.530Z,5.63
2018-12-27T07:35:52.303Z,5.63
2018-12-27T07:36:52.294Z,5.63
2018-12-27T07:37:52.287Z,5.63
2018-12-27T07:38:52.276Z,5.63
2018-12-27T07:39:52.267Z,5.63
2018-12-27T07:40:52.256Z,5.63
2018-12-27T07:41:52.248Z,5.63
2018-12-27T07:42:52.236Z,5.63
2018-12-27T07:43:52.230Z,11.25
2018-12-27T07:44:52.221Z,11.25
2018-12-27T07:45:52.210Z,11.25
2018-12-27T07:46:52.203Z,11.25
2018-12-27T07:47:52.190Z,11.25
2018-12-27T07:48:52.181Z,11.25
2018-12-27T07:49:52.175Z,16.88
2018-12-27T07:50:52.162Z,16.88
2018-12-27T07:51:52.154Z,16.88
2018-12-27T07:52:52.145Z,16.88
2018-12-27T07:53:52.134Z,16.88
2018-12-27T07:54:52.125Z,22.50
2018-12-27T07:55:52.116Z,22.50
2018-12-27T07:56:52.106Z,22.50
2018-12-27T07:57:52.097Z,22.50
2018-12-27T07:58:52.087Z,22.50
2018-12-27T07:59:52.079Z,22.50
2018-12-27T08:00:52.069Z,28.13
2018-12-27T08:01:52.060Z,28.13
2018-12-27T08:02:52.050Z,28.13
2018-12-27T08:03:52.041Z,28.13
2018-12-27T08:04:52.035Z,28.13
2018-12-27T08:05:52.024Z,33.75
2018-12-27T08:06:52.013Z,33.75
2018-12-27T08:07:52.003Z,33.75
2018-12-27T08:08:51.994Z,33.75
2018-12-27T08:09:51.986Z,39.38
2018-12-27T08:10:51.977Z,39.38
2018-12-27T08:11:51.966Z,39.38
2018-12-27T08:12:51.959Z,39.38
2018-12-27T08:13:51.949Z,39.38
2018-12-27T08:14:51.939Z,39.38
2018-12-27T08:15:51.929Z,45.00
2018-12-27T08:16:52.172Z,45.00
2018-12-27T08:17:51.913Z,45.00
2018-12-27T08:18:51.905Z,45.00
2018-12-27T08:19:51.893Z,45.00
2018-12-27T08:20:51.882Z,45.00
2018-12-27T08:21:51.876Z,50.63
2018-12-27T08:22:51.865Z,50.63
2018-12-27T08:23:51.856Z,50.63
2018-12-27T08:24:51.847Z,50.63
2018-12-27T08:25:51.839Z,50.63
2018-12-27T08:26:51.829Z,50.63
2018-12-27T08:27:51.818Z,56.25
2018-12-27T08:28:51.809Z,56.25
2018-12-27T08:29:51.800Z,56.25
2018-12-27T08:30:51.790Z,56.25
2018-12-27T08:31:51.785Z,56.25
2018-12-27T08:32:51.775Z,61.88
2018-12-27T08:33:51.765Z,61.88
2018-12-27T08:34:51.754Z,61.88
2018-12-27T08:35:51.744Z,61.88
2018-12-27T08:36:51.736Z,67.50
2018-12-27T08:37:51.728Z,67.50
2018-12-27T08:38:51.718Z,67.50
2018-12-27T08:39:51.711Z,73.13
2018-12-27T08:40:51.701Z,73.13
2018-12-27T08:41:51.692Z,73.13
2018-12-27T08:42:51.682Z,78.75
2018-12-27T08:43:51.672Z,73.13
2018-12-27T08:44:51.665Z,78.75
2018-12-27T08:45:51.656Z,78.75
2018-12-27T08:46:51.646Z,78.75
2018-12-27T08:47:51.637Z,84.38
2018-12-27T08:48:51.629Z,84.38
2018-12-27T08:49:51.620Z,90.00
2018-12-27T08:50:51.609Z,90.00
2018-12-27T08:51:51.601Z,95.63
2018-12-27T08:52:51.591Z,95.63
2018-12-27T08:53:51.584Z,95.63
2018-12-27T08:54:51.574Z,101.25
2018-12-27T08:55:51.566Z,101.25
2018-12-27T08:56:51.557Z,101.25
2018-12-27T08:57:51.551Z,101.25
2018-12-27T08:58:51.539Z,101.25
2018-12-27T08:59:51.530Z,101.25
2018-12-27T09:00:51.524Z,101.25
2018-12-27T09:01:51.515Z,101.25
2018-12-27T09:02:51.504Z,101.25
2018-12-27T09:03:51.496Z,101.25
2018-12-27T09:04:51.488Z,106.88
2018-12-27T09:05:51.481Z,106.88
2018-12-27T09:06:51.469Z,106.88
2018-12-27T09:07:51.460Z,106.88
2018-12-27T09:08:51.453Z,112.50
2018-12-27T09:09:51.445Z,112.50
2018-12-27T09:10:51.435Z,112.50
2018-12-27T09:11:51.427Z,112.50
2018-12-27T09:12:51.418Z,118.13
2018-12-27T09:13:51.408Z,118.13
2018-12-27T09:14:51.399Z,118.13
2018-12-27T09:15:51.394Z,118.13
2018-12-27T09:16:51.383Z,118.13
2018-12-27T09:17:51.375Z,118.13
2018-12-27T09:18:51.365Z,123.75
2018-12-27T09:19:51.356Z,123.75
2018-12-27T09:20:51.348Z,123.75
2018-12-27T09:21:51.340Z,123.75
2018-12-27T09:22:51.332Z,123.75
2018-12-27T09:23:51.323Z,123.75
2018-12-27T09:24:51.314Z,129.38
2018-12-27T09:25:51.307Z,129.38
2018-12-27T09:26:51.300Z,129.38
2018-12-27T09:27:51.291Z,123.75
2018-12-27T09:28:51.280Z,129.38
2018-12-27T09:29:51.272Z,129.38
2018-12-27T09:30:51.262Z,129.38
2018-12-27T09:31:51.255Z,129.38
2018-12-27T09:32:51.247Z,129.38
2018-12-27T09:33:51.238Z,135.00
2018-12-27T09:34:51.229Z,140.63
2018-12-27T09:35:51.219Z,146.25
2018-12-27T09:36:51.211Z,157.50
2018-12-27T09:37:51.205Z,163.13
2018-12-27T09:38:51.198Z,157.50
2018-12-27T09:39:51.187Z,146.25
2018-12-27T09:40:51.178Z,146.25
2018-12-27T09:41:51.170Z,146.25
2018-12-27T09:42:51.161Z,151.88
2018-12-27T09:43:51.156Z,151.88
2018-12-27T09:44:51.145Z,174.38
2018-12-27T09:45:51.138Z,174.38
2018-12-27T09:46:51.130Z,151.88
2018-12-27T09:47:51.122Z,151.88
2018-12-27T09:48:51.112Z,151.88
2018-12-27T09:49:51.105Z,146.25
2018-12-27T09:50:51.096Z,140.63
2018-12-27T09:51:51.088Z,146.25
2018-12-27T09:52:51.084Z,146.25
2018-12-27T09:53:51.074Z,151.88
2018-12-27T09:54:51.063Z,157.50
2018-12-27T09:55:51.055Z,174.38
2018-12-27T09:56:51.046Z,185.63
2018-12-27T09:57:51.040Z,191.25
2018-12-27T09:58:51.030Z,180.00
2018-12-27T09:59:51.024Z,180.00
2018-12-27T10:00:51.016Z,191.25
2018-12-27T10:01:51.008Z,191.25
2018-12-27T10:02:51.007Z,202.50
2018-12-27T10:03:50.991Z,236.25
2018-12-27T10:04:50.984Z,225.00
2018-12-27T10:05:50.976Z,202.50
2018-12-27T10:06:50.968Z,202.50
2018-12-27T10:07:57.298Z,202.50
2018-12-27T10:08:50.952Z,191.25
2018-12-27T10:09:50.946Z,196.88
2018-12-27T10:10:50.938Z,196.88
2018-12-27T10:11:50.929Z,196.88
2018-12-27T10:12:50.922Z,202.50
2018-12-27T10:13:50.913Z,202.50
2018-12-27T10:14:50.905Z,208.13
2018-12-27T10:15:50.897Z,208.13
2018-12-27T10:16:50.890Z,208.13
2018-12-27T10:17:50.885Z,208.13
2018-12-27T10:18:50.874Z,208.13
2018-12-27T10:19:50.867Z,213.75
2018-12-27T10:20:50.861Z,213.75
2018-12-27T10:21:50.855Z,219.38
2018-12-27T10:22:50.846Z,225.00
2018-12-27T10:23:50.838Z,225.00
2018-12-27T10:24:50.831Z,236.25
2018-12-27T10:25:50.823Z,286.88
2018-12-27T10:26:50.816Z,281.25
2018-12-27T10:27:50.809Z,241.88
2018-12-27T10:28:50.803Z,225.00
2018-12-27T10:29:50.796Z,225.00
2018-12-27T10:30:50.789Z,225.00
2018-12-27T10:31:50.778Z,225.00
2018-12-27T10:32:50.773Z,225.00
2018-12-27T10:33:50.766Z,241.88
2018-12-27T10:34:50.757Z,241.88
2018-12-27T10:35:50.748Z,230.63
2018-12-27T10:36:50.743Z,225.00
2018-12-27T10:37:50.735Z,219.38
2018-12-27T10:38:50.726Z,219.38
2018-12-27T10:39:50.720Z,219.38
2018-12-27T10:40:50.713Z,219.38
2018-12-27T10:41:50.706Z,219.38
2018-12-27T10:42:50.699Z,225.00
2018-12-27T10:43:50.693Z,230.63
2018-12-27T10:44:50.684Z,230.63
2018-12-27T10:45:50.678Z,247.50
2018-12-27T10:46:50.670Z,292.50
2018-12-27T10:47:50.664Z,320.63
2018-12-27T10:48:50.657Z,360.00
2018-12-27T10:49:50.651Z,399.38
2018-12-27T10:50:50.644Z,427.50
2018-12-27T10:51:50.636Z,433.13
2018-12-27T10:52:50.628Z,455.63
2018-12-27T10:53:50.629Z,472.50
2018-12-27T10:54:50.615Z,461.25
2018-12-27T10:55:50.609Z,348.75
2018-12-27T10:56:50.600Z,343.13
2018-12-27T10:57:50.594Z,427.50
2018-12-27T10:58:50.588Z,388.13
2018-12-27T10:59:50.579Z,388.13
2018-12-27T11:00:50.573Z,360.00
2018-12-27T11:01:50.568Z,348.75
2018-12-27T11:02:50.559Z,354.38
2018-12-27T11:03:50.554Z,292.50
2018-12-27T11:04:50.546Z,230.63
2018-12-27T11:05:50.541Z,225.00
2018-12-27T11:06:50.534Z,213.75
2018-12-27T11:07:50.530Z,202.50
2018-12-27T11:08:50.521Z,191.25
2018-12-27T11:09:50.514Z,180.00
2018-12-27T11:10:50.507Z,168.75
2018-12-27T11:11:50.501Z,163.13
2018-12-27T11:12:50.498Z,157.50
2018-12-27T11:13:50.488Z,157.50
2018-12-27T11:14:50.480Z,151.88
2018-12-27T11:15:50.473Z,146.25
2018-12-27T11:16:50.467Z,140.63
2018-12-27T11:17:50.459Z,140.63
2018-12-27T11:18:50.454Z,140.63
2018-12-27T11:19:50.446Z,140.63
2018-12-27T11:20:50.442Z,140.63
2018-12-27T11:21:50.435Z,140.63
2018-12-27T11:22:50.426Z,140.63
2018-12-27T11:23:50.420Z,140.63
2018-12-27T11:24:50.413Z,140.63
2018-12-27T11:25:50.407Z,140.63
2018-12-27T11:26:50.398Z,140.63
2018-12-27T11:27:50.392Z,140.63
2018-12-27T11:28:50.387Z,140.63
2018-12-27T11:29:50.379Z,140.63
2018-12-27T11:30:50.371Z,140.63
2018-12-27T11:31:50.365Z,140.63
2018-12-27T11:32:50.358Z,140.63
2018-12-27T11:33:50.352Z,140.63
2018-12-27T11:34:50.344Z,140.63
2018-12-27T11:35:55.758Z,140.63
2018-12-27T11:36:50.330Z,140.63
2018-12-27T11:37:50.323Z,140.63
2018-12-27T11:38:50.317Z,140.63
2018-12-27T11:39:50.309Z,140.63
2018-12-27T11:40:50.302Z,140.63
2018-12-27T11:41:50.296Z,146.25
2018-12-27T11:42:50.288Z,146.25
2018-12-27T11:43:50.285Z,146.25
2018-12-27T11:44:50.276Z,146.25
2018-12-27T11:45:50.269Z,146.25
2018-12-27T11:46:50.261Z,146.25
2018-12-27T11:47:50.253Z,151.88
2018-12-27T11:48:50.249Z,151.88
2018-12-27T11:49:50.241Z,151.88
2018-12-27T11:50:50.232Z,157.50
2018-12-27T11:51:50.227Z,157.50
2018-12-27T11:52:50.220Z,163.13
2018-12-27T11:53:50.213Z,163.13
2018-12-27T11:54:50.205Z,168.75
2018-12-27T11:55:50.200Z,168.75
2018-12-27T11:56:50.192Z,168.75
2018-12-27T11:57:50.185Z,168.75
2018-12-27T11:58:50.181Z,168.75
2018-12-27T11:59:50.172Z,168.75
2018-12-27T12:00:50.165Z,168.75
2018-12-27T12:01:50.157Z,163.13
2018-12-27T12:02:50.151Z,163.13
2018-12-27T12:03:50.144Z,163.13
2018-12-27T12:04:50.138Z,163.13
2018-12-27T12:05:50.129Z,168.75
2018-12-27T12:06:50.122Z,168.75
2018-12-27T12:07:50.114Z,168.75
2018-12-27T12:08:50.111Z,168.75
2018-12-27T12:09:50.101Z,168.75
2018-12-27T12:10:50.096Z,168.75
2018-12-27T12:11:50.087Z,168.75
2018-12-27T12:12:50.080Z,174.38
2018-12-27T12:13:50.073Z,174.38
2018-12-27T12:14:50.066Z,174.38
2018-12-27T12:15:50.059Z,174.38
2018-12-27T12:16:50.052Z,174.38
2018-12-27T12:17:50.045Z,174.38
2018-12-27T12:18:50.039Z,174.38
2018-12-27T12:19:50.030Z,174.38
2018-12-27T12:20:50.023Z,174.38
2018-12-27T12:21:50.018Z,168.75
2018-12-27T12:22:50.010Z,168.75
2018-12-27T12:23:50.002Z,163.13
2018-12-27T12:24:49.996Z,157.50
2018-12-27T12:25:49.989Z,151.88
2018-12-27T12:26:49.981Z,151.88
2018-12-27T12:27:49.974Z,146.25
2018-12-27T12:28:50.039Z,140.63
2018-12-27T12:29:49.963Z,140.63
2018-12-27T12:30:49.958Z,135.00
2018-12-27T12:31:49.946Z,135.00
2018-12-27T12:32:49.940Z,135.00
2018-12-27T12:33:49.934Z,135.00
2018-12-27T12:34:49.926Z,140.63
2018-12-27T12:35:49.919Z,140.63
2018-12-27T12:36:49.912Z,140.63
2018-12-27T12:37:49.905Z,140.63
2018-12-27T12:38:49.899Z,140.63
2018-12-27T12:39:49.892Z,135.00
2018-12-27T12:40:49.885Z,135.00
2018-12-27T12:41:49.878Z,135.00
2018-12-27T12:42:49.870Z,135.00
2018-12-27T12:43:49.863Z,135.00
2018-12-27T12:44:49.859Z,135.00
2018-12-27T12:45:49.852Z,129.38
2018-12-27T12:46:49.843Z,129.38
2018-12-27T12:47:49.838Z,129.38
2018-12-27T12:48:49.835Z,129.38
2018-12-27T12:49:49.827Z,129.38
2018-12-27T12:50:49.816Z,129.38
2018-12-27T12:51:49.810Z,135.00
2018-12-27T12:52:49.808Z,135.00
2018-12-27T12:53:49.798Z,140.63
2018-12-27T12:54:49.791Z,140.63
2018-12-27T12:55:49.783Z,140.63
2018-12-27T12:56:49.776Z,140.63
2018-12-27T12:57:49.771Z,146.25
2018-12-27T12:58:49.762Z,146.25
2018-12-27T12:59:49.757Z,146.25